sensor_id;sensor_type;location;lat;lon;timestamp;pressure;altitude;pressure_sealevel;temperature;humidity
78825;BME280;68176;45.554;10.220;2024-02-28T00:01:08;99467.31;;;11.07;66.29
78825;BME280;68176;45.554;10.220;2024-02-28T00:03:38;99471.59;;;11.08;66.53
78825;BME280;68176;45.554;10.220;2024-02-28T00:06:08;99473.25;;;11.09;66.12
78825;BME280;68176;45.554;10.220;2024-02-28T00:08:38;99459.44;;;11.07;66.22
78825;BME280;68176;45.554;10.220;2024-02-28T00:11:08;99460.25;;;11.07;65.98
78825;BME280;68176;45.554;10.220;2024-02-28T00:13:38;99455.84;;;11.08;66.09
78825;BME280;68176;45.554;10.220;2024-02-28T00:16:08;99467.31;;;11.07;66.18
78825;BME280;68176;45.554;10.220;2024-02-28T00:18:41;99468.00;;;11.09;66.11
78825;BME280;68176;45.554;10.220;2024-02-28T00:21:08;99469.94;;;11.07;66.17
78825;BME280;68176;45.554;10.220;2024-02-28T00:23:38;99473.25;;;11.09;66.08
78825;BME280;68176;45.554;10.220;2024-02-28T00:26:08;99471.59;;;11.08;66.06
78825;BME280;68176;45.554;10.220;2024-02-28T00:28:38;99476.00;;;11.07;66.33
78825;BME280;68176;45.554;10.220;2024-02-28T00:31:08;99487.34;;;11.08;66.27
78825;BME280;68176;45.554;10.220;2024-02-28T00:33:38;99497.84;;;11.08;66.25
78825;BME280;68176;45.554;10.220;2024-02-28T00:36:08;99489.97;;;11.08;66.15
78825;BME280;68176;45.554;10.220;2024-02-28T00:38:38;99494.25;;;11.09;66.18
78825;BME280;68176;45.554;10.220;2024-02-28T00:41:08;99501.28;;;11.08;66.13
78825;BME280;68176;45.554;10.220;2024-02-28T00:43:38;99496.16;;;11.07;66.17
78825;BME280;68176;45.554;10.220;2024-02-28T00:46:08;99505.03;;;11.06;66.42
78825;BME280;68176;45.554;10.220;2024-02-28T00:48:38;99511.78;;;11.08;66.18
78825;BME280;68176;45.554;10.220;2024-02-28T00:51:08;99514.41;;;11.08;66.13
78825;BME280;68176;45.554;10.220;2024-02-28T00:53:38;99516.19;;;11.08;66.25
78825;BME280;68176;45.554;10.220;2024-02-28T00:56:08;99520.50;;;11.09;66.11
78825;BME280;68176;45.554;10.220;2024-02-28T00:58:38;99518.66;;;11.09;66.22
78825;BME280;68176;45.554;10.220;2024-02-28T01:01:08;99524.63;;;11.11;66.17
78825;BME280;68176;45.554;10.220;2024-02-28T01:03:38;99521.56;;;11.06;66.15
78825;BME280;68176;45.554;10.220;2024-02-28T01:06:09;99535.25;;;11.10;66.10
78825;BME280;68176;45.554;10.220;2024-02-28T01:08:38;99539.66;;;11.09;66.09
78825;BME280;68176;45.554;10.220;2024-02-28T01:11:08;99531.66;;;11.11;66.03
78825;BME280;68176;45.554;10.220;2024-02-28T01:13:38;99522.13;;;11.10;66.14
78825;BME280;68176;45.554;10.220;2024-02-28T01:16:08;99530.84;;;11.10;66.00
78825;BME280;68176;45.554;10.220;2024-02-28T01:18:38;99532.63;;;11.10;66.14
78825;BME280;68176;45.554;10.220;2024-02-28T01:21:08;99527.38;;;11.10;65.97
78825;BME280;68176;45.554;10.220;2024-02-28T01:23:39;99526.53;;;11.09;66.11
78825;BME280;68176;45.554;10.220;2024-02-28T01:26:08;99531.53;;;11.12;66.02
78825;BME280;68176;45.554;10.220;2024-02-28T01:28:38;99533.31;;;11.12;66.07
78825;BME280;68176;45.554;10.220;2024-02-28T01:31:09;99523.78;;;11.11;66.13
78825;BME280;68176;45.554;10.220;2024-02-28T01:33:38;99522.97;;;11.10;65.83
78825;BME280;68176;45.554;10.220;2024-02-28T01:36:10;99527.38;;;11.10;66.27
78825;BME280;68176;45.554;10.220;2024-02-28T01:38:38;99529.03;;;11.11;65.75
78825;BME280;68176;45.554;10.220;2024-02-28T01:41:09;99533.44;;;11.10;66.29
78825;BME280;68176;45.554;10.220;2024-02-28T01:43:39;99527.09;;;11.13;66.03
78825;BME280;68176;45.554;10.220;2024-02-28T01:46:20;99535.94;;;11.12;66.19
78825;BME280;68176;45.554;10.220;2024-02-28T01:48:46;99536.06;;;11.10;66.19
78825;BME280;68176;45.554;10.220;2024-02-28T01:51:12;99541.47;;;11.09;66.09
78825;BME280;68176;45.554;10.220;2024-02-28T01:53:40;99530.00;;;11.10;65.93
78825;BME280;68176;45.554;10.220;2024-02-28T01:56:12;99521.84;;;11.13;66.14
78825;BME280;68176;45.554;10.220;2024-02-28T01:58:41;99529.72;;;11.13;66.13
78825;BME280;68176;45.554;10.220;2024-02-28T02:01:12;99536.25;;;11.09;66.13
78825;BME280;68176;45.554;10.220;2024-02-28T02:03:42;99539.53;;;11.11;66.18
78825;BME280;68176;45.554;10.220;2024-02-28T02:06:11;99548.09;;;11.13;66.38
78825;BME280;68176;45.554;10.220;2024-02-28T02:08:41;99541.47;;;11.09;66.03
78825;BME280;68176;45.554;10.220;2024-02-28T02:11:11;99559.56;;;11.12;66.01
78825;BME280;68176;45.554;10.220;2024-02-28T02:13:51;99554.31;;;11.12;66.19
78825;BME280;68176;45.554;10.220;2024-02-28T02:16:18;99546.44;;;11.12;66.21
78825;BME280;68176;45.554;10.220;2024-02-28T02:18:44;99551.81;;;11.10;66.25
78825;BME280;68176;45.554;10.220;2024-02-28T02:21:13;99557.91;;;11.11;66.08
78825;BME280;68176;45.554;10.220;2024-02-28T02:23:41;99564.81;;;11.12;66.21
78825;BME280;68176;45.554;10.220;2024-02-28T02:26:11;99568.53;;;11.09;65.97
78825;BME280;68176;45.554;10.220;2024-02-28T02:28:41;99565.78;;;11.11;66.24
78825;BME280;68176;45.554;10.220;2024-02-28T02:31:11;99571.03;;;11.11;66.13
78825;BME280;68176;45.554;10.220;2024-02-28T02:33:41;99566.91;;;11.08;66.39
78825;BME280;68176;45.554;10.220;2024-02-28T02:36:11;99564.41;;;11.07;66.40
78825;BME280;68176;45.554;10.220;2024-02-28T02:38:41;99570.06;;;11.12;66.07
78825;BME280;68176;45.554;10.220;2024-02-28T02:41:11;99561.78;;;11.07;66.19
78825;BME280;68176;45.554;10.220;2024-02-28T02:43:41;99574.59;;;11.10;66.34
78825;BME280;68176;45.554;10.220;2024-02-28T02:46:11;99574.31;;;11.13;66.16
78825;BME280;68176;45.554;10.220;2024-02-28T02:48:41;99576.81;;;11.14;66.10
78825;BME280;68176;45.554;10.220;2024-02-28T02:51:11;99566.44;;;11.13;66.15
78825;BME280;68176;45.554;10.220;2024-02-28T02:53:41;99577.09;;;11.11;66.03
78825;BME280;68176;45.554;10.220;2024-02-28T02:56:11;99571.69;;;11.13;66.21
78825;BME280;68176;45.554;10.220;2024-02-28T02:58:41;99575.31;;;11.12;66.05
78825;BME280;68176;45.554;10.220;2024-02-28T03:01:11;99569.22;;;11.11;66.17
78825;BME280;68176;45.554;10.220;2024-02-28T03:03:41;99580.41;;;11.13;66.25
78825;BME280;68176;45.554;10.220;2024-02-28T03:06:11;99570.75;;;11.14;66.12
78825;BME280;68176;45.554;10.220;2024-02-28T03:08:41;99570.75;;;11.14;66.24
78825;BME280;68176;45.554;10.220;2024-02-28T03:11:11;99572.69;;;11.12;65.99
78825;BME280;68176;45.554;10.220;2024-02-28T03:13:41;99582.91;;;11.15;66.07
78825;BME280;68176;45.554;10.220;2024-02-28T03:16:11;99577.94;;;11.12;66.19
78825;BME280;68176;45.554;10.220;2024-02-28T03:18:41;99581.25;;;11.14;66.17
78825;BME280;68176;45.554;10.220;2024-02-28T03:21:11;99588.16;;;11.15;65.99
78825;BME280;68176;45.554;10.220;2024-02-28T03:23:41;99579.56;;;11.13;66.21
78825;BME280;68176;45.554;10.220;2024-02-28T03:26:11;99590.91;;;11.13;66.12
78825;BME280;68176;45.554;10.220;2024-02-28T03:28:41;99590.78;;;11.15;66.15
78825;BME280;68176;45.554;10.220;2024-02-28T03:31:11;99586.50;;;11.14;66.02
78825;BME280;68176;45.554;10.220;2024-02-28T03:33:41;99598.66;;;11.15;66.17
78825;BME280;68176;45.554;10.220;2024-02-28T03:36:11;99600.28;;;11.16;66.06
78825;BME280;68176;45.554;10.220;2024-02-28T03:38:41;99593.41;;;11.15;66.35
78825;BME280;68176;45.554;10.220;2024-02-28T03:41:11;99602.50;;;11.11;66.16
78825;BME280;68176;45.554;10.220;2024-02-28T03:43:41;99611.06;;;11.13;66.18
78825;BME280;68176;45.554;10.220;2024-02-28T03:46:11;99605.81;;;11.13;66.20
78825;BME280;68176;45.554;10.220;2024-02-28T03:48:41;99621.28;;;11.16;66.05
78825;BME280;68176;45.554;10.220;2024-02-28T03:51:11;99617.84;;;11.15;66.02
78825;BME280;68176;45.554;10.220;2024-02-28T03:53:42;99630.28;;;11.13;66.11
78825;BME280;68176;45.554;10.220;2024-02-28T03:56:11;99635.22;;;11.16;66.23
78825;BME280;68176;45.554;10.220;2024-02-28T03:58:41;99626.53;;;11.16;66.01
78825;BME280;68176;45.554;10.220;2024-02-28T04:01:11;99640.63;;;11.15;66.15
78825;BME280;68176;45.554;10.220;2024-02-28T04:03:41;99640.94;;;11.12;66.11
78825;BME280;68176;45.554;10.220;2024-02-28T04:06:11;99648.50;;;11.15;66.04
78825;BME280;68176;45.554;10.220;2024-02-28T04:08:42;99658.03;;;11.16;66.21
78825;BME280;68176;45.554;10.220;2024-02-28T04:11:11;99667.72;;;11.15;66.08
78825;BME280;68176;45.554;10.220;2024-02-28T04:13:42;99672.13;;;11.15;66.18
78825;BME280;68176;45.554;10.220;2024-02-28T04:16:11;99678.91;;;11.17;66.14
78825;BME280;68176;45.554;10.220;2024-02-28T04:18:41;99679.31;;;11.13;66.39
78825;BME280;68176;45.554;10.220;2024-02-28T04:21:12;99689.53;;;11.16;66.23
78825;BME280;68176;45.554;10.220;2024-02-28T04:23:42;99681.81;;;11.14;66.07
78825;BME280;68176;45.554;10.220;2024-02-28T04:26:12;99684.56;;;11.13;66.09
78825;BME280;68176;45.554;10.220;2024-02-28T04:28:42;99696.72;;;11.14;66.19
78825;BME280;68176;45.554;10.220;2024-02-28T04:31:12;99701.97;;;11.14;66.42
78825;BME280;68176;45.554;10.220;2024-02-28T04:33:42;99691.47;;;11.14;66.07
78825;BME280;68176;45.554;10.220;2024-02-28T04:36:11;99709.16;;;11.12;66.24
78825;BME280;68176;45.554;10.220;2024-02-28T04:38:42;99701.28;;;11.12;66.11
78825;BME280;68176;45.554;10.220;2024-02-28T04:41:12;99700.28;;;11.13;66.21
78825;BME280;68176;45.554;10.220;2024-02-28T04:43:42;99691.75;;;11.11;66.10
78825;BME280;68176;45.554;10.220;2024-02-28T04:46:12;99698.94;;;11.09;66.39
78825;BME280;68176;45.554;10.220;2024-02-28T04:48:41;99712.63;;;11.12;66.23
78825;BME280;68176;45.554;10.220;2024-02-28T04:51:15;99707.50;;;11.11;66.18
78825;BME280;68176;45.554;10.220;2024-02-28T04:53:42;99717.16;;;11.10;66.19
78825;BME280;68176;45.554;10.220;2024-02-28T04:56:12;99718.81;;;11.11;66.37
78825;BME280;68176;45.554;10.220;2024-02-28T04:58:41;99724.06;;;11.11;66.23
78825;BME280;68176;45.554;10.220;2024-02-28T05:01:12;99724.34;;;11.08;66.36
78825;BME280;68176;45.554;10.220;2024-02-28T05:03:42;99721.56;;;11.10;66.38
78825;BME280;68176;45.554;10.220;2024-02-28T05:06:12;99719.94;;;11.09;66.25
78825;BME280;68176;45.554;10.220;2024-02-28T05:08:42;99724.34;;;11.08;66.47
78825;BME280;68176;45.554;10.220;2024-02-28T05:11:12;99718.25;;;11.08;66.45
78825;BME280;68176;45.554;10.220;2024-02-28T05:13:42;99728.75;;;11.08;66.36
78825;BME280;68176;45.554;10.220;2024-02-28T05:16:13;99725.47;;;11.06;66.29
78825;BME280;68176;45.554;10.220;2024-02-28T05:18:44;99730.56;;;11.07;66.20
78825;BME280;68176;45.554;10.220;2024-02-28T05:21:12;99733.84;;;11.09;66.16
78825;BME280;68176;45.554;10.220;2024-02-28T05:23:42;99742.56;;;11.10;66.15
78825;BME280;68176;45.554;10.220;2024-02-28T05:26:12;99737.31;;;11.10;66.17
78825;BME280;68176;45.554;10.220;2024-02-28T05:28:42;99747.81;;;11.10;66.16
78825;BME280;68176;45.554;10.220;2024-02-28T05:31:25;99739.25;;;11.08;66.14
78825;BME280;68176;45.554;10.220;2024-02-28T05:33:53;99746.44;;;11.06;66.20
78825;BME280;68176;45.554;10.220;2024-02-28T05:36:19;99747.25;;;11.06;66.25
78825;BME280;68176;45.554;10.220;2024-02-28T05:38:47;99752.38;;;11.08;66.36
78825;BME280;68176;45.554;10.220;2024-02-28T05:41:19;99755.84;;;11.08;66.14
78825;BME280;68176;45.554;10.220;2024-02-28T05:43:47;99754.06;;;11.09;66.27
78825;BME280;68176;45.554;10.220;2024-02-28T05:46:16;99756.69;;;11.09;66.34
78825;BME280;68176;45.554;10.220;2024-02-28T05:48:46;99748.09;;;11.07;66.32
78825;BME280;68176;45.554;10.220;2024-02-28T05:51:15;99753.34;;;11.07;66.32
78825;BME280;68176;45.554;10.220;2024-02-28T05:53:45;99751.69;;;11.06;66.25
78825;BME280;68176;45.554;10.220;2024-02-28T05:56:15;99744.78;;;11.05;66.28
78825;BME280;68176;45.554;10.220;2024-02-28T05:58:46;99755.00;;;11.08;66.22
78825;BME280;68176;45.554;10.220;2024-02-28T06:01:16;99768.81;;;11.10;66.21
78825;BME280;68176;45.554;10.220;2024-02-28T06:03:47;99766.34;;;11.08;66.16
78825;BME280;68176;45.554;10.220;2024-02-28T06:06:16;99783.72;;;11.09;66.16
78825;BME280;68176;45.554;10.220;2024-02-28T06:08:46;99777.53;;;11.10;66.20
78825;BME280;68176;45.554;10.220;2024-02-28T06:11:15;99772.41;;;11.09;66.39
78825;BME280;68176;45.554;10.220;2024-02-28T06:13:46;99767.28;;;11.07;66.18
78825;BME280;68176;45.554;10.220;2024-02-28T06:16:16;99780.97;;;11.11;66.19
78825;BME280;68176;45.554;10.220;2024-02-28T06:18:45;99779.59;;;11.07;66.21
78825;BME280;68176;45.554;10.220;2024-02-28T06:21:16;99796.03;;;11.09;66.54
78825;BME280;68176;45.554;10.220;2024-02-28T06:23:45;99791.88;;;11.06;66.17
78825;BME280;68176;45.554;10.220;2024-02-28T06:26:16;99794.22;;;11.09;66.14
78825;BME280;68176;45.554;10.220;2024-02-28T06:28:45;99805.81;;;11.07;65.97
78825;BME280;68176;45.554;10.220;2024-02-28T06:31:16;99810.25;;;11.06;66.19
78825;BME280;68176;45.554;10.220;2024-02-28T06:33:46;99812.47;;;11.11;66.12
78825;BME280;68176;45.554;10.220;2024-02-28T06:36:15;99816.88;;;11.10;66.32
78825;BME280;68176;45.554;10.220;2024-02-28T06:38:46;99820.47;;;11.09;66.14
78825;BME280;68176;45.554;10.220;2024-02-28T06:41:16;99821.28;;;11.10;66.03
78825;BME280;68176;45.554;10.220;2024-02-28T06:43:46;99827.38;;;11.10;66.05
78825;BME280;68176;45.554;10.220;2024-02-28T06:46:16;99822.97;;;11.11;66.15
78825;BME280;68176;45.554;10.220;2024-02-28T06:48:46;99829.16;;;11.10;66.13
78825;BME280;68176;45.554;10.220;2024-02-28T06:51:16;99837.03;;;11.10;66.19
78825;BME280;68176;45.554;10.220;2024-02-28T06:53:46;99835.41;;;11.09;66.31
78825;BME280;68176;45.554;10.220;2024-02-28T06:56:16;99833.59;;;11.09;66.25
78825;BME280;68176;45.554;10.220;2024-02-28T06:58:46;99833.75;;;11.08;66.19
78825;BME280;68176;45.554;10.220;2024-02-28T07:01:15;99839.81;;;11.08;66.34
78825;BME280;68176;45.554;10.220;2024-02-28T07:03:46;99840.66;;;11.09;66.20
78825;BME280;68176;45.554;10.220;2024-02-28T07:06:16;99839.00;;;11.08;66.10
78825;BME280;68176;45.554;10.220;2024-02-28T07:08:46;99846.19;;;11.06;66.32
78825;BME280;68176;45.554;10.220;2024-02-28T07:11:16;99844.22;;;11.08;66.35
78825;BME280;68176;45.554;10.220;2024-02-28T07:13:46;99846.84;;;11.08;66.25
78825;BME280;68176;45.554;10.220;2024-02-28T07:16:16;99857.47;;;11.06;66.36
78825;BME280;68176;45.554;10.220;2024-02-28T07:18:46;99848.66;;;11.07;66.18
78825;BME280;68176;45.554;10.220;2024-02-28T07:21:16;99860.81;;;11.08;66.30
78825;BME280;68176;45.554;10.220;2024-02-28T07:23:46;99869.53;;;11.09;66.33
78825;BME280;68176;45.554;10.220;2024-02-28T07:26:16;99868.81;;;11.07;66.17
78825;BME280;68176;45.554;10.220;2024-02-28T07:28:46;99866.06;;;11.08;66.30
78825;BME280;68176;45.554;10.220;2024-02-28T07:31:16;99865.91;;;11.10;66.25
78825;BME280;68176;45.554;10.220;2024-02-28T07:33:46;99865.22;;;11.08;66.40
78825;BME280;68176;45.554;10.220;2024-02-28T07:36:16;99866.19;;;11.07;66.00
78825;BME280;68176;45.554;10.220;2024-02-28T07:38:46;99881.28;;;11.14;66.18
78825;BME280;68176;45.554;10.220;2024-02-28T07:41:16;99885.69;;;11.14;66.13
78825;BME280;68176;45.554;10.220;2024-02-28T07:43:46;99900.31;;;11.16;65.86
78825;BME280;68176;45.554;10.220;2024-02-28T07:46:16;99901.16;;;11.17;66.23
78825;BME280;68176;45.554;10.220;2024-02-28T07:48:46;99904.75;;;11.16;66.09
78825;BME280;68176;45.554;10.220;2024-02-28T07:51:17;99908.34;;;11.15;65.93
78825;BME280;68176;45.554;10.220;2024-02-28T07:53:46;99911.66;;;11.17;66.05
78825;BME280;68176;45.554;10.220;2024-02-28T07:56:16;99919.28;;;11.20;65.97
78825;BME280;68176;45.554;10.220;2024-02-28T07:58:46;99914.97;;;11.19;65.94
78825;BME280;68176;45.554;10.220;2024-02-28T08:01:16;99914.28;;;11.17;65.93
78825;BME280;68176;45.554;10.220;2024-02-28T08:03:46;99914.44;;;11.15;66.13
78825;BME280;68176;45.554;10.220;2024-02-28T08:06:16;99913.59;;;11.15;65.85
78825;BME280;68176;45.554;10.220;2024-02-28T08:08:46;99912.78;;;11.14;66.17
78825;BME280;68176;45.554;10.220;2024-02-28T08:11:16;99912.78;;;11.14;66.14
78825;BME280;68176;45.554;10.220;2024-02-28T08:13:46;99916.91;;;11.17;66.04
78825;BME280;68176;45.554;10.220;2024-02-28T08:16:16;99916.66;;;11.20;66.01
78825;BME280;68176;45.554;10.220;2024-02-28T08:18:46;99916.91;;;11.17;66.09
78825;BME280;68176;45.554;10.220;2024-02-28T08:21:16;99914.97;;;11.19;66.14
78825;BME280;68176;45.554;10.220;2024-02-28T08:23:46;99922.56;;;11.22;66.09
78825;BME280;68176;45.554;10.220;2024-02-28T08:26:16;99917.47;;;11.20;66.16
78825;BME280;68176;45.554;10.220;2024-02-28T08:28:46;99924.25;;;11.23;65.94
78825;BME280;68176;45.554;10.220;2024-02-28T08:31:16;99935.31;;;11.27;65.95
78825;BME280;68176;45.554;10.220;2024-02-28T08:33:46;99938.78;;;11.27;65.94
78825;BME280;68176;45.554;10.220;2024-02-28T08:36:16;99945.97;;;11.25;66.07
78825;BME280;68176;45.554;10.220;2024-02-28T08:38:46;99936.16;;;11.27;66.00
78825;BME280;68176;45.554;10.220;2024-02-28T08:41:16;99943.19;;;11.27;65.71
78825;BME280;68176;45.554;10.220;2024-02-28T08:43:46;99942.34;;;11.26;65.93
78825;BME280;68176;45.554;10.220;2024-02-28T08:46:16;99943.75;;;11.30;65.85
78825;BME280;68176;45.554;10.220;2024-02-28T08:48:46;99956.72;;;11.32;65.75
78825;BME280;68176;45.554;10.220;2024-02-28T08:51:16;99952.75;;;11.28;66.04
78825;BME280;68176;45.554;10.220;2024-02-28T08:53:46;99962.81;;;11.32;65.69
78825;BME280;68176;45.554;10.220;2024-02-28T08:56:16;99960.19;;;11.32;65.83
78825;BME280;68176;45.554;10.220;2024-02-28T08:58:46;99958.56;;;11.31;66.03
78825;BME280;68176;45.554;10.220;2024-02-28T09:01:16;99958.41;;;11.33;65.69
78825;BME280;68176;45.554;10.220;2024-02-28T09:03:46;99960.75;;;11.36;65.78
78825;BME280;68176;45.554;10.220;2024-02-28T09:06:16;99957.31;;;11.35;65.66
78825;BME280;68176;45.554;10.220;2024-02-28T09:08:46;99964.91;;;11.38;65.64
78825;BME280;68176;45.554;10.220;2024-02-28T09:11:16;99976.41;;;11.37;65.86
78825;BME280;68176;45.554;10.220;2024-02-28T09:13:46;99979.72;;;11.39;65.75
78825;BME280;68176;45.554;10.220;2024-02-28T09:16:16;99974.72;;;11.36;65.75
78825;BME280;68176;45.554;10.220;2024-02-28T09:18:46;99982.47;;;11.38;65.99
78825;BME280;68176;45.554;10.220;2024-02-28T09:21:16;99976.41;;;11.37;65.70
78825;BME280;68176;45.554;10.220;2024-02-28T09:23:46;99974.47;;;11.39;65.84
78825;BME280;68176;45.554;10.220;2024-02-28T09:26:16;99969.47;;;11.36;65.91
78825;BME280;68176;45.554;10.220;2024-02-28T09:28:46;99970.88;;;11.40;65.80
78825;BME280;68176;45.554;10.220;2024-02-28T09:31:17;99975.13;;;11.41;65.78
78825;BME280;68176;45.554;10.220;2024-02-28T09:33:46;99967.53;;;11.38;65.81
78825;BME280;68176;45.554;10.220;2024-02-28T09:36:16;99966.72;;;11.38;65.78
78825;BME280;68176;45.554;10.220;2024-02-28T09:38:46;99982.34;;;11.39;65.85
78825;BME280;68176;45.554;10.220;2024-02-28T09:41:17;99975.28;;;11.40;65.76
78825;BME280;68176;45.554;10.220;2024-02-28T09:43:47;99978.06;;;11.48;66.84
78825;BME280;68176;45.554;10.220;2024-02-28T09:46:16;99982.53;;;11.66;68.00
78825;BME280;68176;45.554;10.220;2024-02-28T09:48:47;99986.41;;;11.62;69.48
78825;BME280;68176;45.554;10.220;2024-02-28T09:51:18;99986.41;;;11.62;69.28
78825;BME280;68176;45.554;10.220;2024-02-28T09:53:46;99992.22;;;11.66;68.44
78825;BME280;68176;45.554;10.220;2024-02-28T09:56:17;99988.31;;;11.60;68.43
78825;BME280;68176;45.554;10.220;2024-02-28T09:58:47;99994.56;;;11.59;68.39
78825;BME280;68176;45.554;10.220;2024-02-28T10:01:19;99989.31;;;11.59;68.34
78825;BME280;68176;45.554;10.220;2024-02-28T10:03:47;99993.00;;;11.57;68.35
78825;BME280;68176;45.554;10.220;2024-02-28T10:06:17;100000.78;;;11.58;68.26
78825;BME280;68176;45.554;10.220;2024-02-28T10:08:47;100004.09;;;11.60;68.13
78825;BME280;68176;45.554;10.220;2024-02-28T10:11:18;100011.00;;;11.61;68.00
78825;BME280;68176;45.554;10.220;2024-02-28T10:13:47;100002.44;;;11.59;67.59
78825;BME280;68176;45.554;10.220;2024-02-28T10:16:17;100003.25;;;11.60;67.39
78825;BME280;68176;45.554;10.220;2024-02-28T10:18:47;99999.66;;;11.61;67.39
78825;BME280;68176;45.554;10.220;2024-02-28T10:21:17;100007.44;;;11.62;67.48
78825;BME280;68176;45.554;10.220;2024-02-28T10:23:47;100005.75;;;11.61;67.08
78825;BME280;68176;45.554;10.220;2024-02-28T10:26:17;99992.75;;;11.60;66.93
78825;BME280;68176;45.554;10.220;2024-02-28T10:28:47;100003.81;;;11.63;67.24
78825;BME280;68176;45.554;10.220;2024-02-28T10:31:17;100009.91;;;11.64;66.91
78825;BME280;68176;45.554;10.220;2024-02-28T10:33:47;100015.03;;;11.65;67.10
78825;BME280;68176;45.554;10.220;2024-02-28T10:36:17;100020.97;;;11.67;66.81
78825;BME280;68176;45.554;10.220;2024-02-28T10:38:47;100017.38;;;11.68;66.59
78825;BME280;68176;45.554;10.220;2024-02-28T10:41:18;100010.47;;;11.67;66.99
78825;BME280;68176;45.554;10.220;2024-02-28T10:43:48;100008.53;;;11.69;66.61
78825;BME280;68176;45.554;10.220;2024-02-28T10:46:20;100013.53;;;11.72;66.66
78825;BME280;68176;45.554;10.220;2024-02-28T10:48:49;100021.16;;;11.75;66.57
78825;BME280;68176;45.554;10.220;2024-02-28T10:51:22;100017.56;;;11.76;66.35
78825;BME280;68176;45.554;10.220;2024-02-28T10:53:50;100023.25;;;11.82;66.37
78825;BME280;68176;45.554;10.220;2024-02-28T10:56:20;100021.59;;;11.81;66.03
78825;BME280;68176;45.554;10.220;2024-02-28T10:58:51;100021.31;;;11.84;66.24
78825;BME280;68176;45.554;10.220;2024-02-28T11:01:17;100014.13;;;11.86;66.05
78825;BME280;68176;45.554;10.220;2024-02-28T11:03:48;100025.06;;;11.91;66.21
78825;BME280;68176;45.554;10.220;2024-02-28T11:06:17;100016.09;;;11.93;65.91
78825;BME280;68176;45.554;10.220;2024-02-28T11:08:48;100018.56;;;11.95;65.87
78825;BME280;68176;45.554;10.220;2024-02-28T11:11:17;100007.78;;;11.98;65.66
78825;BME280;68176;45.554;10.220;2024-02-28T11:13:54;100011.78;;;12.02;65.78
78825;BME280;68176;45.554;10.220;2024-02-28T11:16:27;100013.31;;;12.04;65.83
78825;BME280;68176;45.554;10.220;2024-02-28T11:18:53;100008.22;;;12.03;65.88
78825;BME280;68176;45.554;10.220;2024-02-28T11:21:18;100005.31;;;12.06;66.05
78825;BME280;68176;45.554;10.220;2024-02-28T11:23:47;100008.88;;;12.05;65.86
78825;BME280;68176;45.554;10.220;2024-02-28T11:26:17;100010.28;;;12.09;65.77
78825;BME280;68176;45.554;10.220;2024-02-28T11:28:47;100010.28;;;12.09;65.79
78825;BME280;68176;45.554;10.220;2024-02-28T11:31:17;100011.13;;;12.09;65.76
78825;BME280;68176;45.554;10.220;2024-02-28T11:33:47;100005.88;;;12.09;65.91
78825;BME280;68176;45.554;10.220;2024-02-28T11:36:17;100001.97;;;12.13;65.68
78825;BME280;68176;45.554;10.220;2024-02-28T11:38:48;100011.41;;;12.16;65.95
78825;BME280;68176;45.554;10.220;2024-02-28T11:41:25;100009.59;;;12.16;65.60
78825;BME280;68176;45.554;10.220;2024-02-28T11:43:52;100016.66;;;12.16;65.87
78825;BME280;68176;45.554;10.220;2024-02-28T11:46:18;100007.78;;;12.17;65.76
78825;BME280;68176;45.554;10.220;2024-02-28T11:48:47;100011.25;;;12.17;66.05
78825;BME280;68176;45.554;10.220;2024-02-28T11:51:17;100008.78;;;12.16;65.84
78825;BME280;68176;45.554;10.220;2024-02-28T11:53:47;100003.25;;;12.19;66.36
78825;BME280;68176;45.554;10.220;2024-02-28T11:56:17;100011.81;;;12.21;65.93
78825;BME280;68176;45.554;10.220;2024-02-28T11:58:51;100005.88;;;12.19;65.91
78825;BME280;68176;45.554;10.220;2024-02-28T12:01:17;100012.19;;;12.45;67.49
78825;BME280;68176;45.554;10.220;2024-02-28T12:03:47;100005.41;;;12.62;68.49
78825;BME280;68176;45.554;10.220;2024-02-28T12:06:17;100005.84;;;12.48;69.04
78825;BME280;68176;45.554;10.220;2024-02-28T12:08:47;100006.38;;;12.51;68.57
78825;BME280;68176;45.554;10.220;2024-02-28T12:11:19;100011.63;;;12.51;68.27
78825;BME280;68176;45.554;10.220;2024-02-28T12:13:47;100014.03;;;12.54;67.73
78825;BME280;68176;45.554;10.220;2024-02-28T12:16:17;100012.34;;;12.53;67.58
78825;BME280;68176;45.554;10.220;2024-02-28T12:18:47;100016.78;;;12.53;67.73
78825;BME280;68176;45.554;10.220;2024-02-28T12:21:18;100014.28;;;12.51;67.36
78825;BME280;68176;45.554;10.220;2024-02-28T12:23:48;100024.13;;;12.49;67.25
78825;BME280;68176;45.554;10.220;2024-02-28T12:26:17;100034.34;;;12.52;67.21
78825;BME280;68176;45.554;10.220;2024-02-28T12:28:47;100029.38;;;12.49;67.02
78825;BME280;68176;45.554;10.220;2024-02-28T12:31:17;100018.84;;;12.49;67.20
78825;BME280;68176;45.554;10.220;2024-02-28T12:33:47;100029.38;;;12.49;67.18
78825;BME280;68176;45.554;10.220;2024-02-28T12:36:17;100029.53;;;12.48;66.93
78825;BME280;68176;45.554;10.220;2024-02-28T12:38:47;100032.97;;;12.48;66.96
78825;BME280;68176;45.554;10.220;2024-02-28T12:41:17;100024.41;;;12.46;67.06
78825;BME280;68176;45.554;10.220;2024-02-28T12:43:47;100033.25;;;12.45;67.14
78825;BME280;68176;45.554;10.220;2024-02-28T12:46:17;100022.72;;;12.45;67.22
78825;BME280;68176;45.554;10.220;2024-02-28T12:48:47;100031.59;;;12.44;66.98
78825;BME280;68176;45.554;10.220;2024-02-28T12:51:36;100024.69;;;12.43;67.01
78825;BME280;68176;45.554;10.220;2024-02-28T12:54:02;100025.63;;;12.42;67.19
78825;BME280;68176;45.554;10.220;2024-02-28T12:56:28;100021.50;;;12.40;67.25
78825;BME280;68176;45.554;10.220;2024-02-28T12:58:56;100024.13;;;12.40;67.32
78825;BME280;68176;45.554;10.220;2024-02-28T13:01:27;100020.66;;;12.39;67.09